sensor_id;sensor_type;location;lat;lon;timestamp;pressure;altitude;pressure_sealevel;temperature;humidity
57192;BME280;43052;52.588;13.396;2023-04-06T00:00:32;101702.00;;;4.32;54.00
57192;BME280;43052;52.588;13.396;2023-04-06T00:02:57;101702.81;;;4.31;54.07
57192;BME280;43052;52.588;13.396;2023-04-06T00:05:22;101706.22;;;4.30;54.37
57192;BME280;43052;52.588;13.396;2023-04-06T00:07:48;101691.41;;;4.26;54.26
57192;BME280;43052;52.588;13.396;2023-04-06T00:10:13;101692.25;;;4.25;53.97
57192;BME280;43052;52.588;13.396;2023-04-06T00:12:39;101684.47;;;4.25;54.37
57192;BME280;43052;52.588;13.396;2023-04-06T00:15:04;101694.00;;;4.26;54.48
57192;BME280;43052;52.588;13.396;2023-04-06T00:17:30;101686.91;;;4.20;54.11
57192;BME280;43052;52.588;13.396;2023-04-06T00:19:55;101687.59;;;4.16;54.04
57192;BME280;43052;52.588;13.396;2023-04-06T00:22:21;101683.94;;;4.10;54.25
57192;BME280;43052;52.588;13.396;2023-04-06T00:24:46;101688.94;;;4.05;54.49
57192;BME280;43052;52.588;13.396;2023-04-06T00:27:11;101685.34;;;4.01;54.50
57192;BME280;43052;52.588;13.396;2023-04-06T00:29:37;101688.66;;;3.97;54.42
57192;BME280;43052;52.588;13.396;2023-04-06T00:32:03;101685.03;;;3.92;54.70
57192;BME280;43052;52.588;13.396;2023-04-06T00:34:29;101688.50;;;3.92;54.79
57192;BME280;43052;52.588;13.396;2023-04-06T00:36:54;101683.16;;;3.88;54.69
57192;BME280;43052;52.588;13.396;2023-04-06T00:39:19;101683.16;;;3.88;54.83
57192;BME280;43052;52.588;13.396;2023-04-06T00:41:49;101672.66;;;3.85;54.91
57192;BME280;43052;52.588;13.396;2023-04-06T00:44:15;101682.31;;;3.89;54.80
57192;BME280;43052;52.588;13.396;2023-04-06T00:46:41;101679.75;;;3.89;54.82
57192;BME280;43052;52.588;13.396;2023-04-06T00:49:06;101666.47;;;3.80;54.70
57192;BME280;43052;52.588;13.396;2023-04-06T00:51:31;101673.31;;;3.79;55.01
57192;BME280;43052;52.588;13.396;2023-04-06T00:53:56;101668.91;;;3.76;54.87
57192;BME280;43052;52.588;13.396;2023-04-06T00:56:22;101669.69;;;3.74;55.16
57192;BME280;43052;52.588;13.396;2023-04-06T00:58:48;101672.94;;;3.68;55.46
57192;BME280;43052;52.588;13.396;2023-04-06T01:01:13;101670.25;;;3.65;55.42
57192;BME280;43052;52.588;13.396;2023-04-06T01:03:39;101667.50;;;3.60;55.48
57192;BME280;43052;52.588;13.396;2023-04-06T01:06:04;101672.59;;;3.59;55.38
57192;BME280;43052;52.588;13.396;2023-04-06T01:08:29;101670.81;;;3.58;55.68
57192;BME280;43052;52.588;13.396;2023-04-06T01:10:55;101670.00;;;3.59;55.51
57192;BME280;43052;52.588;13.396;2023-04-06T01:13:20;101671.78;;;3.60;55.79
57192;BME280;43052;52.588;13.396;2023-04-06T01:15:46;101671.00;;;3.63;55.72
57192;BME280;43052;52.588;13.396;2023-04-06T01:18:12;101669.41;;;3.66;55.62
57192;BME280;43052;52.588;13.396;2023-04-06T01:20:37;101664.22;;;3.66;55.90
57192;BME280;43052;52.588;13.396;2023-04-06T01:23:02;101669.31;;;3.63;56.23
57192;BME280;43052;52.588;13.396;2023-04-06T01:25:27;101675.34;;;3.64;56.22
57192;BME280;43052;52.588;13.396;2023-04-06T01:27:53;101675.19;;;3.59;56.20
57192;BME280;43052;52.588;13.396;2023-04-06T01:30:18;101673.31;;;3.55;56.40
57192;BME280;43052;52.588;13.396;2023-04-06T01:32:43;101669.78;;;3.53;56.35
57192;BME280;43052;52.588;13.396;2023-04-06T01:35:09;101672.31;;;3.51;56.86
57192;BME280;43052;52.588;13.396;2023-04-06T01:37:35;101672.88;;;3.44;57.01
57192;BME280;43052;52.588;13.396;2023-04-06T01:40:00;101671.88;;;3.40;57.15
57192;BME280;43052;52.588;13.396;2023-04-06T01:42:25;101658.50;;;3.28;57.38
57192;BME280;43052;52.588;13.396;2023-04-06T01:44:51;101674.09;;;3.31;57.16
57192;BME280;43052;52.588;13.396;2023-04-06T01:47:16;101667.84;;;3.24;57.40
57192;BME280;43052;52.588;13.396;2023-04-06T01:49:42;101676.28;;;3.20;57.57
57192;BME280;43052;52.588;13.396;2023-04-06T01:52:07;101675.28;;;3.17;57.75
57192;BME280;43052;52.588;13.396;2023-04-06T01:54:32;101674.53;;;3.19;58.00
57192;BME280;43052;52.588;13.396;2023-04-06T01:56:58;101674.53;;;3.19;57.77
57192;BME280;43052;52.588;13.396;2023-04-06T01:59:23;101673.53;;;3.16;57.75
57192;BME280;43052;52.588;13.396;2023-04-06T02:01:48;101665.72;;;3.14;57.75
57192;BME280;43052;52.588;13.396;2023-04-06T02:04:13;101666.59;;;3.14;57.77
57192;BME280;43052;52.588;13.396;2023-04-06T02:06:39;101666.59;;;3.14;57.66
57192;BME280;43052;52.588;13.396;2023-04-06T02:09:05;101668.25;;;3.12;57.59
57192;BME280;43052;52.588;13.396;2023-04-06T02:11:30;101667.28;;;3.10;57.60
57192;BME280;43052;52.588;13.396;2023-04-06T02:13:56;101663.91;;;3.11;57.87
57192;BME280;43052;52.588;13.396;2023-04-06T02:16:21;101663.81;;;3.10;58.09
57192;BME280;43052;52.588;13.396;2023-04-06T02:18:47;101662.81;;;3.06;58.04
57192;BME280;43052;52.588;13.396;2023-04-06T02:21:12;101661.00;;;3.04;58.28
57192;BME280;43052;52.588;13.396;2023-04-06T02:23:37;101666.13;;;3.02;58.73
57192;BME280;43052;52.588;13.396;2023-04-06T02:26:03;101661.56;;;2.96;58.69
57192;BME280;43052;52.588;13.396;2023-04-06T02:28:28;101664.84;;;2.92;58.72
57192;BME280;43052;52.588;13.396;2023-04-06T02:30:53;101665.47;;;2.87;58.77
57192;BME280;43052;52.588;13.396;2023-04-06T02:33:18;101668.13;;;2.88;58.90
57192;BME280;43052;52.588;13.396;2023-04-06T02:35:44;101670.78;;;2.90;58.77
57192;BME280;43052;52.588;13.396;2023-04-06T02:38:10;101665.56;;;2.88;58.69
57192;BME280;43052;52.588;13.396;2023-04-06T02:40:35;101666.31;;;2.86;58.63
57192;BME280;43052;52.588;13.396;2023-04-06T02:43:00;101666.19;;;2.82;58.87
57192;BME280;43052;52.588;13.396;2023-04-06T02:45:25;101666.88;;;2.78;58.89
57192;BME280;43052;52.588;13.396;2023-04-06T02:47:51;101661.50;;;2.74;58.80
57192;BME280;43052;52.588;13.396;2023-04-06T02:50:16;101658.44;;;2.61;59.09
57192;BME280;43052;52.588;13.396;2023-04-06T02:52:41;101665.03;;;2.55;59.43
57192;BME280;43052;52.588;13.396;2023-04-06T02:55:07;101661.00;;;2.40;59.70
57192;BME280;43052;52.588;13.396;2023-04-06T02:57:32;101665.53;;;2.25;59.69
57192;BME280;43052;52.588;13.396;2023-04-06T02:59:58;101666.00;;;2.16;59.83
57192;BME280;43052;52.588;13.396;2023-04-06T03:02:23;101670.59;;;2.03;59.93
57192;BME280;43052;52.588;13.396;2023-04-06T03:04:48;101671.91;;;1.94;60.66
57192;BME280;43052;52.588;13.396;2023-04-06T03:07:13;101682.72;;;1.85;60.63
57192;BME280;43052;52.588;13.396;2023-04-06T03:09:39;101681.66;;;1.81;60.77
57192;BME280;43052;52.588;13.396;2023-04-06T03:12:04;101681.22;;;1.90;60.94
57192;BME280;43052;52.588;13.396;2023-04-06T03:14:29;101683.25;;;1.97;60.67
57192;BME280;43052;52.588;13.396;2023-04-06T03:16:55;101678.03;;;1.96;60.43
57192;BME280;43052;52.588;13.396;2023-04-06T03:19:20;101675.03;;;1.86;60.47
57192;BME280;43052;52.588;13.396;2023-04-06T03:21:45;101678.22;;;1.81;60.65
57192;BME280;43052;52.588;13.396;2023-04-06T03:24:10;101683.56;;;1.66;60.88
57192;BME280;43052;52.588;13.396;2023-04-06T03:26:36;101685.66;;;1.55;60.98
57192;BME280;43052;52.588;13.396;2023-04-06T03:29:01;101682.44;;;1.41;61.27
57192;BME280;43052;52.588;13.396;2023-04-06T03:31:26;101684.41;;;1.29;61.38
57192;BME280;43052;52.588;13.396;2023-04-06T03:33:52;101688.44;;;1.22;61.78
57192;BME280;43052;52.588;13.396;2023-04-06T03:36:17;101691.72;;;1.19;61.83
57192;BME280;43052;52.588;13.396;2023-04-06T03:38:42;101688.84;;;1.13;62.13
57192;BME280;43052;52.588;13.396;2023-04-06T03:41:07;101698.28;;;1.13;62.33
57192;BME280;43052;52.588;13.396;2023-04-06T03:43:33;101697.25;;;1.09;62.49
57192;BME280;43052;52.588;13.396;2023-04-06T03:45:58;101701.22;;;1.02;62.80
57192;BME280;43052;52.588;13.396;2023-04-06T03:48:23;101699.91;;;0.92;63.03
57192;BME280;43052;52.588;13.396;2023-04-06T03:50:48;101706.78;;;0.93;63.64
57192;BME280;43052;52.588;13.396;2023-04-06T03:53:14;101705.06;;;0.92;63.69
57192;BME280;43052;52.588;13.396;2023-04-06T03:55:39;101708.50;;;0.93;64.03
57192;BME280;43052;52.588;13.396;2023-04-06T03:58:05;101711.81;;;0.90;63.77
57192;BME280;43052;52.588;13.396;2023-04-06T04:00:30;101711.59;;;0.86;63.96
57192;BME280;43052;52.588;13.396;2023-04-06T04:02:56;101709.59;;;0.80;64.37
57192;BME280;43052;52.588;13.396;2023-04-06T04:05:22;101704.38;;;0.78;64.32
57192;BME280;43052;52.588;13.396;2023-04-06T04:07:50;101704.22;;;0.75;64.10
57192;BME280;43052;52.588;13.396;2023-04-06T04:10:15;101718.78;;;0.75;64.37
57192;BME280;43052;52.588;13.396;2023-04-06T04:12:40;101716.47;;;0.63;64.33
57192;BME280;43052;52.588;13.396;2023-04-06T04:15:06;101715.69;;;0.47;64.71
57192;BME280;43052;52.588;13.396;2023-04-06T04:17:31;101718.19;;;0.46;64.88
57192;BME280;43052;52.588;13.396;2023-04-06T04:19:56;101717.16;;;0.42;64.87
57192;BME280;43052;52.588;13.396;2023-04-06T04:22:22;101721.25;;;0.39;65.03
57192;BME280;43052;52.588;13.396;2023-04-06T04:24:47;101723.66;;;0.36;65.26
57192;BME280;43052;52.588;13.396;2023-04-06T04:27:12;101719.03;;;0.28;65.25
57192;BME280;43052;52.588;13.396;2023-04-06T04:29:37;101714.50;;;0.24;65.43
57192;BME280;43052;52.588;13.396;2023-04-06T04:32:03;101699.38;;;0.14;65.66
57192;BME280;43052;52.588;13.396;2023-04-06T04:34:28;101722.94;;;0.22;65.71
57192;BME280;43052;52.588;13.396;2023-04-06T04:36:53;101721.91;;;0.18;65.78
57192;BME280;43052;52.588;13.396;2023-04-06T04:39:18;101720.81;;;0.13;66.05
57192;BME280;43052;52.588;13.396;2023-04-06T04:41:44;101724.19;;;0.12;66.24
57192;BME280;43052;52.588;13.396;2023-04-06T04:44:09;101727.84;;;0.17;66.54
57192;BME280;43052;52.588;13.396;2023-04-06T04:46:35;101732.13;;;0.17;66.47
57192;BME280;43052;52.588;13.396;2023-04-06T04:49:00;101725.22;;;0.15;66.66
57192;BME280;43052;52.588;13.396;2023-04-06T04:51:25;101729.94;;;0.24;66.73
57192;BME280;43052;52.588;13.396;2023-04-06T04:53:50;101731.78;;;0.27;66.90
57192;BME280;43052;52.588;13.396;2023-04-06T04:56:16;101727.78;;;0.32;66.95
57192;BME280;43052;52.588;13.396;2023-04-06T04:58:41;101725.50;;;0.38;67.02
57192;BME280;43052;52.588;13.396;2023-04-06T05:01:06;101738.13;;;0.50;67.25
57192;BME280;43052;52.588;13.396;2023-04-06T05:03:33;101728.97;;;0.55;67.41
57192;BME280;43052;52.588;13.396;2023-04-06T05:05:58;101727.78;;;0.67;67.71
57192;BME280;43052;52.588;13.396;2023-04-06T05:08:23;101737.03;;;0.80;67.79
57192;BME280;43052;52.588;13.396;2023-04-06T05:10:48;101728.94;;;0.90;67.71
57192;BME280;43052;52.588;13.396;2023-04-06T05:13:14;101733.75;;;1.00;67.65
57192;BME280;43052;52.588;13.396;2023-04-06T05:15:40;101736.03;;;1.12;67.55
57192;BME280;43052;52.588;13.396;2023-04-06T05:18:08;101738.19;;;1.21;67.75
57192;BME280;43052;52.588;13.396;2023-04-06T05:20:34;101743.06;;;1.33;67.80
57192;BME280;43052;52.588;13.396;2023-04-06T05:23:00;101721.84;;;1.38;67.68
57192;BME280;43052;52.588;13.396;2023-04-06T05:25:25;101737.97;;;1.52;67.59
57192;BME280;43052;52.588;13.396;2023-04-06T05:27:50;101734.13;;;1.62;67.75
57192;BME280;43052;52.588;13.396;2023-04-06T05:30:16;101742.28;;;1.71;67.80
57192;BME280;43052;52.588;13.396;2023-04-06T05:32:41;101740.19;;;1.82;67.40
57192;BME280;43052;52.588;13.396;2023-04-06T05:35:08;101746.78;;;1.95;67.24
57192;BME280;43052;52.588;13.396;2023-04-06T05:37:33;101742.25;;;2.09;67.29
57192;BME280;43052;52.588;13.396;2023-04-06T05:39:59;101744.63;;;2.24;67.14
57192;BME280;43052;52.588;13.396;2023-04-06T05:42:24;101743.44;;;2.35;66.90
57192;BME280;43052;52.588;13.396;2023-04-06T05:44:49;101751.78;;;2.49;66.89
57192;BME280;43052;52.588;13.396;2023-04-06T05:47:15;101741.97;;;2.62;66.30
57192;BME280;43052;52.588;13.396;2023-04-06T05:49:41;101754.84;;;2.81;66.31
57192;BME280;43052;52.588;13.396;2023-04-06T05:52:08;101744.28;;;2.96;65.92
57192;BME280;43052;52.588;13.396;2023-04-06T05:54:33;101751.78;;;3.11;65.63
57192;BME280;43052;52.588;13.396;2023-04-06T05:56:58;101742.81;;;3.24;65.46
57192;BME280;43052;52.588;13.396;2023-04-06T05:59:23;101745.81;;;3.35;65.44
57192;BME280;43052;52.588;13.396;2023-04-06T06:01:49;101742.88;;;3.49;64.86
57192;BME280;43052;52.588;13.396;2023-04-06T06:04:14;101741.66;;;3.61;64.61
57192;BME280;43052;52.588;13.396;2023-04-06T06:06:39;101745.78;;;3.79;64.37
57192;BME280;43052;52.588;13.396;2023-04-06T06:09:04;101743.88;;;3.98;63.71
57192;BME280;43052;52.588;13.396;2023-04-06T06:11:30;101743.78;;;4.19;63.21
57192;BME280;43052;52.588;13.396;2023-04-06T06:13:55;101744.09;;;4.51;62.30
57192;BME280;43052;52.588;13.396;2023-04-06T06:16:20;101746.16;;;5.40;60.94
57192;BME280;43052;52.588;13.396;2023-04-06T06:18:45;101736.25;;;7.51;55.85
57192;BME280;43052;52.588;13.396;2023-04-06T06:21:12;101733.31;;;9.73;53.00
57192;BME280;43052;52.588;13.396;2023-04-06T06:23:38;101732.53;;;11.67;48.76
57192;BME280;43052;52.588;13.396;2023-04-06T06:26:04;101725.91;;;13.05;44.51
57192;BME280;43052;52.588;13.396;2023-04-06T06:28:30;101724.69;;;14.27;43.35
57192;BME280;43052;52.588;13.396;2023-04-06T06:30:55;101716.69;;;15.51;41.28
57192;BME280;43052;52.588;13.396;2023-04-06T06:33:20;101717.84;;;16.66;38.11
57192;BME280;43052;52.588;13.396;2023-04-06T06:35:45;101720.22;;;17.35;35.26
57192;BME280;43052;52.588;13.396;2023-04-06T06:38:11;101715.34;;;18.04;34.43
57192;BME280;43052;52.588;13.396;2023-04-06T06:40:36;101719.00;;;18.77;32.64
57192;BME280;43052;52.588;13.396;2023-04-06T06:43:02;101715.38;;;19.49;30.80
57192;BME280;43052;52.588;13.396;2023-04-06T06:45:27;101707.97;;;19.93;29.61
57192;BME280;43052;52.588;13.396;2023-04-06T06:47:54;101723.06;;;20.49;28.70
57192;BME280;43052;52.588;13.396;2023-04-06T06:50:19;101712.28;;;21.08;27.65
57192;BME280;43052;52.588;13.396;2023-04-06T06:52:45;101715.72;;;21.62;26.36
57192;BME280;43052;52.588;13.396;2023-04-06T06:55:10;101718.94;;;21.72;25.43
57192;BME280;43052;52.588;13.396;2023-04-06T06:57:36;101710.56;;;22.05;24.48
57192;BME280;43052;52.588;13.396;2023-04-06T07:00:02;101715.63;;;22.57;24.25
57192;BME280;43052;52.588;13.396;2023-04-06T07:02:27;101717.56;;;22.96;23.29
57192;BME280;43052;52.588;13.396;2023-04-06T07:04:53;101713.59;;;23.27;22.61
57192;BME280;43052;52.588;13.396;2023-04-06T07:07:18;101706.97;;;23.76;22.50
57192;BME280;43052;52.588;13.396;2023-04-06T07:09:43;101718.59;;;24.32;21.87
57192;BME280;43052;52.588;13.396;2023-04-06T07:12:08;101715.56;;;24.94;21.32
57192;BME280;43052;52.588;13.396;2023-04-06T07:14:34;101718.22;;;25.29;20.72
57192;BME280;43052;52.588;13.396;2023-04-06T07:16:59;101719.00;;;25.49;20.03
57192;BME280;43052;52.588;13.396;2023-04-06T07:19:25;101719.75;;;25.69;19.71
57192;BME280;43052;52.588;13.396;2023-04-06T07:21:51;101721.00;;;25.61;18.97
57192;BME280;43052;52.588;13.396;2023-04-06T07:24:16;101720.25;;;25.75;19.33
57192;BME280;43052;52.588;13.396;2023-04-06T07:26:42;101718.88;;;26.18;18.96
57192;BME280;43052;52.588;13.396;2023-04-06T07:29:07;101710.28;;;26.73;18.21
57192;BME280;43052;52.588;13.396;2023-04-06T07:31:33;101709.06;;;26.95;17.79
57192;BME280;43052;52.588;13.396;2023-04-06T07:34:00;101713.34;;;26.67;17.71
57192;BME280;43052;52.588;13.396;2023-04-06T07:36:25;101716.34;;;27.08;17.53
57192;BME280;43052;52.588;13.396;2023-04-06T07:38:51;101716.81;;;27.59;16.58
57192;BME280;43052;52.588;13.396;2023-04-06T07:41:16;101707.72;;;27.62;16.89
57192;BME280;43052;52.588;13.396;2023-04-06T07:43:41;101717.97;;;28.26;16.74
57192;BME280;43052;52.588;13.396;2023-04-06T07:46:07;101713.59;;;28.65;14.98
57192;BME280;43052;52.588;13.396;2023-04-06T07:48:32;101706.53;;;28.37;15.27
57192;BME280;43052;52.588;13.396;2023-04-06T07:51:02;101716.97;;;28.41;15.29
57192;BME280;43052;52.588;13.396;2023-04-06T07:53:28;101718.09;;;28.92;15.02
57192;BME280;43052;52.588;13.396;2023-04-06T07:55:53;101711.91;;;29.56;14.45
57192;BME280;43052;52.588;13.396;2023-04-06T07:58:18;101707.69;;;30.39;14.00
57192;BME280;43052;52.588;13.396;2023-04-06T08:00:44;101709.56;;;31.10;13.74
57192;BME280;43052;52.588;13.396;2023-04-06T08:03:09;101705.16;;;31.43;12.86
57192;BME280;43052;52.588;13.396;2023-04-06T08:05:34;101708.00;;;31.19;12.86
57192;BME280;43052;52.588;13.396;2023-04-06T08:07:59;101706.41;;;31.84;12.97
57192;BME280;43052;52.588;13.396;2023-04-06T08:10:25;101705.81;;;32.36;12.40
57192;BME280;43052;52.588;13.396;2023-04-06T08:12:51;101712.03;;;32.69;11.75
57192;BME280;43052;52.588;13.396;2023-04-06T08:15:17;101714.28;;;32.64;12.01
57192;BME280;43052;52.588;13.396;2023-04-06T08:17:43;101712.25;;;32.77;11.45
57192;BME280;43052;52.588;13.396;2023-04-06T08:20:08;101713.63;;;32.07;11.23
57192;BME280;43052;52.588;13.396;2023-04-06T08:22:34;101718.50;;;32.13;11.39
57192;BME280;43052;52.588;13.396;2023-04-06T08:24:59;101720.53;;;31.77;11.35
57192;BME280;43052;52.588;13.396;2023-04-06T08:27:24;101724.69;;;30.53;11.59
57192;BME280;43052;52.588;13.396;2023-04-06T08:29:50;101727.78;;;29.85;11.65
57192;BME280;43052;52.588;13.396;2023-04-06T08:32:16;101716.53;;;29.54;12.22
57192;BME280;43052;52.588;13.396;2023-04-06T08:34:41;101718.75;;;30.47;11.63
57192;BME280;43052;52.588;13.396;2023-04-06T08:37:06;101706.28;;;31.63;11.65
57192;BME280;43052;52.588;13.396;2023-04-06T08:39:32;101707.41;;;32.92;10.88
57192;BME280;43052;52.588;13.396;2023-04-06T08:41:59;101715.72;;;33.01;10.86
57192;BME280;43052;52.588;13.396;2023-04-06T08:44:28;101716.50;;;33.12;10.58
57192;BME280;43052;52.588;13.396;2023-04-06T08:46:54;101721.38;;;33.40;10.99
57192;BME280;43052;52.588;13.396;2023-04-06T08:49:20;101719.19;;;33.65;10.42
57192;BME280;43052;52.588;13.396;2023-04-06T08:51:45;101711.50;;;32.10;10.66
57192;BME280;43052;52.588;13.396;2023-04-06T08:54:12;101707.84;;;31.88;11.12
57192;BME280;43052;52.588;13.396;2023-04-06T08:56:38;101712.03;;;32.80;10.87
57192;BME280;43052;52.588;13.396;2023-04-06T08:59:04;101714.75;;;33.33;10.19
57192;BME280;43052;52.588;13.396;2023-04-06T09:01:30;101705.22;;;33.07;9.38
57192;BME280;43052;52.588;13.396;2023-04-06T09:03:59;101702.59;;;31.41;10.27
57192;BME280;43052;52.588;13.396;2023-04-06T09:06:26;101704.81;;;31.70;10.83
57192;BME280;43052;52.588;13.396;2023-04-06T09:08:52;101702.03;;;33.02;10.67
57192;BME280;43052;52.588;13.396;2023-04-06T09:11:17;101714.84;;;33.21;9.25
57192;BME280;43052;52.588;13.396;2023-04-06T09:13:52;101710.78;;;31.97;9.76
57192;BME280;43052;52.588;13.396;2023-04-06T09:16:18;101698.53;;;31.36;10.82
57192;BME280;43052;52.588;13.396;2023-04-06T09:18:43;101700.94;;;32.51;10.83
57192;BME280;43052;52.588;13.396;2023-04-06T09:21:09;101698.66;;;33.72;9.94
57192;BME280;43052;52.588;13.396;2023-04-06T09:23:35;101696.97;;;34.41;9.51
57192;BME280;43052;52.588;13.396;2023-04-06T09:26:27;101704.19;;;33.61;8.85
57192;BME280;43052;52.588;13.396;2023-04-06T09:28:56;101698.09;;;31.06;9.76
57192;BME280;43052;52.588;13.396;2023-04-06T09:31:23;101709.09;;;29.58;11.00
57192;BME280;43052;52.588;13.396;2023-04-06T09:33:48;101700.03;;;29.20;10.95
57192;BME280;43052;52.588;13.396;2023-04-06T09:36:14;101687.72;;;30.66;11.28
57192;BME280;43052;52.588;13.396;2023-04-06T09:38:52;101684.19;;;32.13;9.00
57192;BME280;43052;52.588;13.396;2023-04-06T09:41:36;101691.78;;;29.86;9.80
57192;BME280;43052;52.588;13.396;2023-04-06T09:44:07;101690.13;;;28.27;11.21
57192;BME280;43052;52.588;13.396;2023-04-06T09:46:37;101695.81;;;29.03;10.90
57192;BME280;43052;52.588;13.396;2023-04-06T09:49:03;101687.78;;;30.29;10.04
57192;BME280;43052;52.588;13.396;2023-04-06T09:51:30;101676.34;;;29.88;9.74
57192;BME280;43052;52.588;13.396;2023-04-06T09:53:56;101674.63;;;28.58;10.72
57192;BME280;43052;52.588;13.396;2023-04-06T09:56:28;101681.22;;;29.33;11.65
57192;BME280;43052;52.588;13.396;2023-04-06T09:58:57;101681.06;;;28.42;10.88
57192;BME280;43052;52.588;13.396;2023-04-06T10:01:28;101683.34;;;24.61;13.40
57192;BME280;43052;52.588;13.396;2023-04-06T10:04:07;101675.13;;;24.83;13.51
57192;BME280;43052;52.588;13.396;2023-04-06T10:06:35;101663.09;;;27.59;12.61
57192;BME280;43052;52.588;13.396;2023-04-06T10:09:04;101663.09;;;30.46;10.68
57192;BME280;43052;52.588;13.396;2023-04-06T10:11:33;101663.88;;;28.58;11.52
57192;BME280;43052;52.588;13.396;2023-04-06T10:13:58;101663.94;;;27.16;12.07
57192;BME280;43052;52.588;13.396;2023-04-06T10:16:25;101671.38;;;26.66;12.46
57192;BME280;43052;52.588;13.396;2023-04-06T10:18:56;101668.94;;;27.08;11.71
57192;BME280;43052;52.588;13.396;2023-04-06T10:21:25;101663.88;;;27.47;11.79
57192;BME280;43052;52.588;13.396;2023-04-06T10:23:55;101659.88;;;26.80;12.56
57192;BME280;43052;52.588;13.396;2023-04-06T10:26:22;101660.72;;;28.91;11.19
57192;BME280;43052;52.588;13.396;2023-04-06T10:28:49;101655.09;;;30.81;9.60
57192;BME280;43052;52.588;13.396;2023-04-06T10:31:15;101656.50;;;32.32;8.81
57192;BME280;43052;52.588;13.396;2023-04-06T10:33:41;101661.75;;;32.66;8.96
57192;BME280;43052;52.588;13.396;2023-04-06T10:36:13;101666.78;;;32.92;8.81
57192;BME280;43052;52.588;13.396;2023-04-06T10:38:40;101645.16;;;32.60;8.89
57192;BME280;43052;52.588;13.396;2023-04-06T10:41:07;101654.31;;;33.32;8.52
57192;BME280;43052;52.588;13.396;2023-04-06T10:43:35;101658.38;;;31.54;8.75
57192;BME280;43052;52.588;13.396;2023-04-06T10:46:01;101668.09;;;27.65;11.11
57192;BME280;43052;52.588;13.396;2023-04-06T10:48:43;101658.03;;;26.81;12.14
57192;BME280;43052;52.588;13.396;2023-04-06T10:51:17;101663.00;;;24.58;13.68
57192;BME280;43052;52.588;13.396;2023-04-06T10:53:45;101664.19;;;22.33;15.29
57192;BME280;43052;52.588;13.396;2023-04-06T10:56:17;101662.81;;;20.50;17.06
57192;BME280;43052;52.588;13.396;2023-04-06T10:58:46;101663.31;;;19.45;17.84
57192;BME280;43052;52.588;13.396;2023-04-06T11:01:12;101661.25;;;18.55;18.31
57192;BME280;43052;52.588;13.396;2023-04-06T11:03:44;101667.47;;;17.74;18.50
57192;BME280;43052;52.588;13.396;2023-04-06T11:06:09;101663.09;;;16.77;19.29
57192;BME280;43052;52.588;13.396;2023-04-06T11:08:35;101665.38;;;15.82;20.19
57192;BME280;43052;52.588;13.396;2023-04-06T11:11:09;101664.84;;;14.66;21.45
57192;BME280;43052;52.588;13.396;2023-04-06T11:13:58;101649.53;;;13.83;22.40
57192;BME280;43052;52.588;13.396;2023-04-06T11:16:26;101643.59;;;13.39;23.15
57192;BME280;43052;52.588;13.396;2023-04-06T11:18:54;101655.91;;;12.92;23.81
57192;BME280;43052;52.588;13.396;2023-04-06T11:21:31;101655.94;;;12.61;24.25
57192;BME280;43052;52.588;13.396;2023-04-06T11:24:10;101655.91;;;12.72;25.78
57192;BME280;43052;52.588;13.396;2023-04-06T11:26:47;101647.16;;;13.13;24.57
57192;BME280;43052;52.588;13.396;2023-04-06T11:29:19;101637.41;;;13.52;24.14
57192;BME280;43052;52.588;13.396;2023-04-06T11:31:49;101645.19;;;13.75;23.82
57192;BME280;43052;52.588;13.396;2023-04-06T11:34:24;101645.28;;;13.57;23.27
57192;BME280;43052;52.588;13.396;2023-04-06T11:36:57;101646.25;;;13.15;23.80
57192;BME280;43052;52.588;13.396;2023-04-06T11:39:24;101645.41;;;12.92;23.98
57192;BME280;43052;52.588;13.396;2023-04-06T11:41:52;101641.91;;;12.68;24.30
57192;BME280;43052;52.588;13.396;2023-04-06T11:44:29;101642.78;;;12.53;25.07
57192;BME280;43052;52.588;13.396;2023-04-06T11:46:57;101638.44;;;12.63;25.16
57192;BME280;43052;52.588;13.396;2023-04-06T11:49:27;101638.41;;;12.97;24.93
57192;BME280;43052;52.588;13.396;2023-04-06T11:51:52;101627.00;;;13.10;23.84
57192;BME280;43052;52.588;13.396;2023-04-06T11:54:17;101632.31;;;12.62;23.79
57192;BME280;43052;52.588;13.396;2023-04-06T11:56:46;101634.94;;;12.51;23.68
57192;BME280;43052;52.588;13.396;2023-04-06T11:59:11;101620.94;;;12.54;24.07
57192;BME280;43052;52.588;13.396;2023-04-06T12:01:44;101625.28;;;12.66;23.86
57192;BME280;43052;52.588;13.396;2023-04-06T12:04:10;101609.56;;;12.70;23.90
57192;BME280;43052;52.588;13.396;2023-04-06T12:06:35;101613.06;;;12.82;24.04
57192;BME280;43052;52.588;13.396;2023-04-06T12:09:00;101622.63;;;13.03;24.46
57192;BME280;43052;52.588;13.396;2023-04-06T12:11:25;101621.78;;;12.95;24.35
57192;BME280;43052;52.588;13.396;2023-04-06T12:13:51;101621.81;;;12.78;24.79
57192;BME280;43052;52.588;13.396;2023-04-06T12:16:16;101617.41;;;12.88;24.86
57192;BME280;43052;52.588;13.396;2023-04-06T12:18:44;101616.53;;;12.95;25.28
57192;BME280;43052;52.588;13.396;2023-04-06T12:21:09;101628.75;;;13.18;24.82
57192;BME280;43052;52.588;13.396;2023-04-06T12:23:34;101610.25;;;13.55;24.22
57192;BME280;43052;52.588;13.396;2023-04-06T12:26:00;101614.47;;;13.85;24.02
57192;BME280;43052;52.588;13.396;2023-04-06T12:28:27;101604.84;;;13.79;24.04
57192;BME280;43052;52.588;13.396;2023-04-06T12:30:52;101596.88;;;13.98;24.27
57192;BME280;43052;52.588;13.396;2023-04-06T12:33:17;101599.31;;;14.26;22.71
57192;BME280;43052;52.588;13.396;2023-04-06T12:35:43;101593.13;;;14.35;23.08
57192;BME280;43052;52.588;13.396;2023-04-06T12:38:08;101599.28;;;14.32;23.00
57192;BME280;43052;52.588;13.396;2023-04-06T12:40:40;101608.16;;;14.16;23.11